createdAt,value
2023-05-08T00:01:33.394Z,6.97
2023-05-08T00:06:36.347Z,7.20
2023-05-08T00:11:39.358Z,6.87
2023-05-08T00:16:43.781Z,6.60
2023-05-08T00:21:46.760Z,7.00
2023-05-08T00:26:49.762Z,8.00
2023-05-08T00:31:54.070Z,7.13
2023-05-08T00:36:57.591Z,7.33
2023-05-08T00:42:00.615Z,7.63
2023-05-08T00:47:04.944Z,7.33
2023-05-08T00:52:09.020Z,7.90
2023-05-08T00:57:11.969Z,7.10
2023-05-08T01:02:16.929Z,6.63
2023-05-08T01:07:20.100Z,8.10
2023-05-08T01:12:37.938Z,8.13
2023-05-08T01:17:51.591Z,8.70
2023-05-08T01:23:25.973Z,8.80
2023-05-08T01:28:55.959Z,8.20
2023-05-08T01:34:07.265Z,7.63
2023-05-08T01:39:18.590Z,7.73
2023-05-08T01:44:29.403Z,7.70
2023-05-08T01:49:39.807Z,7.50
2023-05-08T01:54:51.480Z,8.30
2023-05-08T01:59:57.228Z,7.57
2023-05-08T02:05:04.711Z,7.93
2023-05-08T02:10:11.415Z,7.53
2023-05-08T02:15:17.296Z,8.97
2023-05-08T02:20:23.116Z,9.13
2023-05-08T02:25:27.301Z,8.30
2023-05-08T02:30:30.739Z,8.17
2023-05-08T02:35:35.554Z,9.50
2023-05-08T02:40:42.768Z,8.23
2023-05-08T02:45:50.892Z,8.67
2023-05-08T02:51:00.477Z,9.33
2023-05-08T02:56:11.191Z,8.20
2023-05-08T03:01:22.845Z,10.10
2023-05-08T03:06:28.174Z,9.00
2023-05-08T03:11:38.746Z,8.83
2023-05-08T03:16:45.917Z,9.97
2023-05-08T03:21:53.002Z,9.73
2023-05-08T03:26:57.864Z,8.83
2023-05-08T03:32:03.310Z,9.20
2023-05-08T03:37:08.414Z,8.90
2023-05-08T03:42:21.081Z,8.50
2023-05-08T03:47:26.142Z,9.07
2023-05-08T03:52:31.400Z,8.67
2023-05-08T03:57:41.675Z,8.07
2023-05-08T04:02:51.814Z,8.20
2023-05-08T04:08:04.430Z,7.63
2023-05-08T04:13:13.319Z,8.00
2023-05-08T04:18:26.606Z,8.10
2023-05-08T04:23:31.277Z,8.07
2023-05-08T04:28:35.478Z,7.70
2023-05-08T04:33:39.157Z,7.13
2023-05-08T04:38:43.735Z,8.17
2023-05-08T04:43:47.785Z,7.00
2023-05-08T04:48:50.973Z,8.00
2023-05-08T04:53:55.378Z,6.57
2023-05-08T04:58:59.089Z,6.47
2023-05-08T05:04:02.210Z,6.50
2023-05-08T05:09:06.669Z,6.23
2023-05-08T05:14:10.152Z,6.83
2023-05-08T05:19:13.226Z,5.93
2023-05-08T05:24:18.002Z,5.77
2023-05-08T05:29:21.100Z,6.40
2023-05-08T05:34:24.128Z,6.90
2023-05-08T05:39:28.515Z,6.93
2023-05-08T05:44:31.552Z,7.00
2023-05-08T05:49:35.074Z,5.77
2023-05-08T05:54:41.442Z,6.50
2023-05-08T05:59:45.125Z,6.07
2023-05-08T06:04:50.039Z,6.87
2023-05-08T06:09:54.494Z,7.70
2023-05-08T06:14:57.908Z,7.10
2023-05-08T06:20:01.050Z,7.07
2023-05-08T06:25:07.125Z,6.60
2023-05-08T06:30:10.831Z,8.07
2023-05-08T06:35:18.383Z,7.00
2023-05-08T06:40:24.043Z,11.50
2023-05-08T06:45:27.009Z,6.80
2023-05-08T06:50:30.006Z,7.10
2023-05-08T06:55:34.313Z,7.00
2023-05-08T07:00:37.546Z,5.13
2023-05-08T07:05:40.392Z,4.83
2023-05-08T07:10:44.649Z,5.10
2023-05-08T07:15:47.605Z,5.00
2023-05-08T07:20:50.593Z,4.30
2023-05-08T07:25:55.403Z,4.50
2023-05-08T07:30:58.276Z,4.40
2023-05-08T07:36:01.253Z,3.90
2023-05-08T07:41:05.731Z,4.50
2023-05-08T07:46:08.622Z,4.83
2023-05-08T07:51:12.240Z,4.10
2023-05-08T07:56:16.533Z,4.00
2023-05-08T08:01:19.465Z,3.90
2023-05-08T08:06:22.404Z,3.60
2023-05-08T08:11:26.687Z,3.90
2023-05-08T08:16:29.681Z,3.67
2023-05-08T08:21:32.829Z,3.30
2023-05-08T08:26:37.124Z,3.60
2023-05-08T08:31:40.213Z,3.23
2023-05-08T08:36:43.327Z,3.80
2023-05-08T08:41:47.743Z,3.60
2023-05-08T08:46:52.856Z,3.27
2023-05-08T08:52:01.215Z,2.87
2023-05-08T08:57:08.270Z,2.87
2023-05-08T09:02:17.407Z,2.43
2023-05-08T09:07:20.906Z,2.80
2023-05-08T09:12:25.279Z,2.63
2023-05-08T09:17:28.235Z,2.33
2023-05-08T09:22:31.625Z,2.23
2023-05-08T09:27:36.780Z,2.17
2023-05-08T09:32:41.780Z,2.20
2023-05-08T09:37:44.881Z,2.67
2023-05-08T09:42:50.463Z,2.50
2023-05-08T09:47:53.451Z,2.50
2023-05-08T09:52:56.611Z,2.20
2023-05-08T09:58:01.228Z,2.50
2023-05-08T10:03:04.876Z,2.20
2023-05-08T10:08:21.498Z,2.00
2023-05-08T10:13:26.209Z,1.97
2023-05-08T10:18:31.801Z,2.00
2023-05-08T10:23:35.405Z,2.00
2023-05-08T10:28:44.254Z,1.37
2023-05-08T10:33:51.627Z,2.33
2023-05-08T10:38:55.225Z,1.53
2023-05-08T10:44:03.332Z,1.90
2023-05-08T10:49:15.983Z,2.00
2023-05-08T10:54:27.997Z,1.80
2023-05-08T10:59:36.388Z,1.80
2023-05-08T11:04:39.495Z,1.80
2023-05-08T11:09:49.383Z,1.90
2023-05-08T11:15:01.979Z,1.70
2023-05-08T11:20:07.289Z,1.70
2023-05-08T11:25:11.928Z,1.90
2023-05-08T11:30:24.492Z,1.47
2023-05-08T11:35:54.605Z,1.60
2023-05-08T11:41:05.708Z,1.70
2023-05-08T11:46:16.587Z,1.87
2023-05-08T11:51:20.433Z,1.90
2023-05-08T11:56:23.374Z,1.53
2023-05-08T12:01:27.655Z,1.60
2023-05-08T12:06:31.900Z,1.60
2023-05-08T12:11:34.798Z,1.50
2023-05-08T12:16:39.715Z,1.50
2023-05-08T12:21:48.090Z,1.80
2023-05-08T12:26:51.300Z,1.80
2023-05-08T12:31:56.730Z,1.80
2023-05-08T12:37:04.258Z,1.93
2023-05-08T12:42:07.284Z,2.10
2023-05-08T12:47:12.318Z,1.80
2023-05-08T12:52:15.263Z,2.10
2023-05-08T12:57:19.627Z,1.90
2023-05-08T13:02:26.455Z,1.70
2023-05-08T13:07:33.360Z,1.83
2023-05-08T13:12:36.342Z,2.10
2023-05-08T13:17:40.690Z,1.97
2023-05-08T13:22:43.654Z,2.10
2023-05-08T13:27:46.626Z,1.90
2023-05-08T13:32:52.574Z,1.90
2023-05-08T13:37:55.820Z,1.73
2023-05-08T13:42:58.730Z,1.90
2023-05-08T13:48:03.030Z,1.63
2023-05-08T13:53:06.174Z,1.90
2023-05-08T13:58:09.148Z,1.70
2023-05-08T14:03:13.430Z,1.63
2023-05-08T14:08:16.383Z,1.73
2023-05-08T14:13:19.392Z,1.67
2023-05-08T14:18:23.669Z,1.73
2023-05-08T14:23:26.758Z,1.50
2023-05-08T14:28:29.691Z,1.93
2023-05-08T14:33:33.982Z,1.53
2023-05-08T14:38:36.924Z,1.60
2023-05-08T14:43:39.812Z,1.80
2023-05-08T14:48:44.074Z,2.70
2023-05-08T14:53:47.041Z,2.60
2023-05-08T14:58:50.004Z,2.67
2023-05-08T15:03:54.450Z,2.90
2023-05-08T15:08:57.341Z,2.47
2023-05-08T15:14:01.799Z,3.23
2023-05-08T15:19:06.129Z,3.13
2023-05-08T15:24:09.930Z,3.10
2023-05-08T15:29:12.880Z,3.07
2023-05-08T15:34:17.170Z,3.00
2023-05-08T15:39:20.087Z,3.00
2023-05-08T15:44:24.756Z,3.03
2023-05-08T15:49:29.190Z,3.20
2023-05-08T15:54:32.103Z,3.43
2023-05-08T15:59:37.546Z,3.10
2023-05-08T16:04:41.795Z,2.67
2023-05-08T16:09:44.730Z,3.30
2023-05-08T16:14:47.727Z,3.47
2023-05-08T16:19:52.003Z,3.63
2023-05-08T16:24:55.024Z,3.60
2023-05-08T16:29:57.955Z,3.40
2023-05-08T16:35:02.502Z,3.87
2023-05-08T16:40:06.720Z,3.27
2023-05-08T16:45:11.898Z,3.50
2023-05-08T16:50:16.214Z,3.47
2023-05-08T16:55:19.244Z,4.07
2023-05-08T17:00:22.816Z,3.30
2023-05-08T17:05:27.131Z,3.70
2023-05-08T17:10:30.265Z,3.67
2023-05-08T17:15:33.190Z,3.67
2023-05-08T17:20:40.955Z,3.73
2023-05-08T17:25:44.070Z,3.87
2023-05-08T17:30:48.219Z,3.63
2023-05-08T17:35:52.478Z,4.30
2023-05-08T17:40:56.402Z,4.10
2023-05-08T17:45:59.362Z,3.73
2023-05-08T17:51:03.989Z,4.57
2023-05-08T17:56:07.751Z,4.40
2023-05-08T18:01:10.726Z,4.60
2023-05-08T18:06:17.065Z,4.50
2023-05-08T18:11:21.436Z,4.87
2023-05-08T18:16:24.482Z,4.53
2023-05-08T18:21:28.946Z,5.37
2023-05-08T18:26:32.248Z,4.90
2023-05-08T18:31:35.328Z,5.00
2023-05-08T18:36:39.723Z,4.90
2023-05-08T18:41:42.623Z,5.93
2023-05-08T18:46:45.625Z,5.60
2023-05-08T18:51:49.936Z,5.50
2023-05-08T18:56:52.848Z,5.23
2023-05-08T19:01:55.914Z,6.33
2023-05-08T19:07:00.817Z,5.73
2023-05-08T19:12:04.096Z,5.97
2023-05-08T19:17:07.558Z,5.80
2023-05-08T19:22:11.859Z,6.63
2023-05-08T19:27:14.782Z,6.33
2023-05-08T19:32:17.713Z,7.47
2023-05-08T19:37:21.944Z,9.10
2023-05-08T19:42:24.849Z,7.83
2023-05-08T19:47:27.850Z,8.20
2023-05-08T19:52:32.099Z,7.97
2023-05-08T19:57:34.952Z,6.93
2023-05-08T20:02:38.044Z,6.40
2023-05-08T20:07:42.444Z,7.10
2023-05-08T20:12:45.409Z,6.93
2023-05-08T20:17:48.378Z,6.90
2023-05-08T20:22:52.632Z,6.37
2023-05-08T20:27:55.667Z,7.20
2023-05-08T20:33:04.514Z,7.07
2023-05-08T20:38:09.240Z,6.87
2023-05-08T20:43:12.410Z,6.67
2023-05-08T20:48:15.368Z,6.57
2023-05-08T20:53:19.623Z,7.00
2023-05-08T20:58:22.546Z,6.63
2023-05-08T21:03:25.545Z,6.60
2023-05-08T21:08:29.828Z,6.37
2023-05-08T21:13:32.950Z,6.17
2023-05-08T21:18:36.482Z,5.93
2023-05-08T21:23:40.930Z,7.30
2023-05-08T21:28:43.850Z,6.97
2023-05-08T21:33:46.825Z,6.33
2023-05-08T21:38:52.037Z,6.50
2023-05-08T21:43:54.914Z,6.40
2023-05-08T21:48:57.815Z,6.20
2023-05-08T21:54:02.479Z,7.30
2023-05-08T21:59:05.414Z,6.67
2023-05-08T22:04:08.330Z,6.73
2023-05-08T22:09:12.623Z,7.47
2023-05-08T22:14:16.100Z,6.30
2023-05-08T22:19:19.030Z,5.80
2023-05-08T22:24:23.459Z,5.30
2023-05-08T22:29:26.466Z,5.67
2023-05-08T22:34:29.361Z,5.80
2023-05-08T22:39:33.799Z,5.73
2023-05-08T22:44:37.740Z,6.37
2023-05-08T22:49:41.972Z,5.43
2023-05-08T22:54:46.295Z,5.00
2023-05-08T22:59:49.144Z,5.60
2023-05-08T23:04:52.061Z,5.50
2023-05-08T23:09:56.407Z,5.20
2023-05-08T23:14:59.478Z,5.13
2023-05-08T23:20:02.519Z,4.90
2023-05-08T23:25:10.328Z,5.97
2023-05-08T23:30:16.693Z,5.30
2023-05-08T23:35:19.832Z,5.40
2023-05-08T23:40:24.380Z,6.00
2023-05-08T23:45:27.265Z,5.90
2023-05-08T23:50:30.193Z,5.60
2023-05-08T23:55:36.168Z,6.10
